Time;durP1;ratioP1;P1;durP2;ratioP2;P2;SDS_P1;SDS_P2;PMS_P1;PMS_P2;Temp;Humidity;BMP_temperature;BMP_pressure;BME280_temperature;BME280_humidity;BME280_pressure;Samples;Min_cycle;Max_cycle;Signal;HPM_P1;HPM_P2
2023/04/05 00:01:31;;;;;;;4.47;1.73;;;;;;;-146.26;100.00;59860.63;4985288;28;20141;-74
2023/04/05 00:03:59;;;;;;;2.78;1.20;;;;;;;-146.26;100.00;59860.63;4987671;28;20084;-74
2023/04/05 00:06:27;;;;;;;2.90;1.75;;;;;;;-146.26;100.00;59860.63;4987838;28;20054;-75
2023/04/05 00:09:00;;;;;;;3.13;1.83;;;;;;;-146.26;100.00;59860.63;4986645;28;20074;-74
2023/04/05 00:11:31;;;;;;;6.65;1.73;;;;;;;-146.26;100.00;59860.63;4988059;28;20132;-74
2023/04/05 00:13:58;;;;;;;2.30;1.20;;;;;;;-146.26;100.00;59860.63;4996180;28;20041;-74
2023/04/05 00:16:26;;;;;;;3.17;1.25;;;;;;;-146.26;100.00;59860.63;4985012;28;20061;-74
2023/04/05 00:18:51;;;;;;;1.13;0.68;;;;;;;-146.26;100.00;59860.63;4988271;28;20801;-74
2023/04/05 00:21:21;;;;;;;2.60;1.00;;;;;;;-146.26;100.00;59860.63;4987332;28;20128;-75
2023/04/05 00:23:52;;;;;;;2.17;1.10;;;;;;;-146.26;100.00;59860.63;4986804;28;20042;-74
2023/04/05 00:26:18;;;;;;;3.38;1.35;;;;;;;-146.26;100.00;59860.63;4965807;28;20092;-73
2023/04/05 00:28:43;;;;;;;1.70;0.82;;;;;;;-146.26;100.00;59860.63;5017595;28;20050;-73
2023/04/05 00:31:09;;;;;;;2.67;1.15;;;;;;;-146.26;100.00;59860.63;4988693;28;20078;-72
2023/04/05 00:33:34;;;;;;;3.33;1.25;;;;;;;-146.26;100.00;59860.63;4984993;28;20077;-74
2023/04/05 00:36:15;;;;;;;2.85;1.15;;;;;;;-146.26;100.00;59860.63;4988140;28;20050;-72
2023/04/05 00:38:42;;;;;;;1.52;0.82;;;;;;;-146.26;100.00;59860.63;4978436;28;20054;-72
2023/04/05 00:41:08;;;;;;;1.42;0.80;;;;;;;-146.26;100.00;59860.63;4984890;28;20135;-74
2023/04/05 00:43:33;;;;;;;2.05;0.93;;;;;;;-146.26;100.00;59860.63;4987140;28;20034;-72
2023/04/05 00:46:00;;;;;;;2.28;1.25;;;;;;;-146.26;100.00;59860.63;4988559;28;20474;-72
2023/04/05 00:48:26;;;;;;;2.80;1.63;;;;;;;-146.26;100.00;59860.63;4988167;28;20096;-73
2023/04/05 00:50:51;;;;;;;2.47;1.30;;;;;;;-146.26;100.00;59860.63;4988024;28;20544;-75
2023/04/05 00:53:20;;;;;;;1.83;1.23;;;;;;;-146.26;100.00;59860.63;5004827;28;20069;-74
2023/04/05 00:55:47;;;;;;;1.73;1.10;;;;;;;-146.26;100.00;59860.63;4989103;28;20108;-74
2023/04/05 00:58:13;;;;;;;1.98;1.02;;;;;;;-146.26;100.00;59860.63;4986038;28;20046;-74
2023/04/05 01:00:40;;;;;;;3.72;1.52;;;;;;;-146.26;100.00;59860.63;4999323;28;20049;-74
2023/04/05 01:03:06;;;;;;;2.42;1.30;;;;;;;-146.26;100.00;59860.63;4991136;28;20046;-74
2023/04/05 01:05:48;;;;;;;3.00;1.77;;;;;;;-146.26;100.00;59860.63;4986109;28;20054;-74
2023/04/05 01:08:27;;;;;;;4.15;1.83;;;;;;;-146.26;100.00;59860.63;4985597;28;20494;-74
2023/04/05 01:11:02;;;;;;;3.15;1.65;;;;;;;-146.26;100.00;59860.63;4986090;28;20049;-74
2023/04/05 01:13:31;;;;;;;2.63;1.30;;;;;;;-146.26;100.00;59860.63;4983663;28;20074;-74
2023/04/05 01:15:56;;;;;;;3.15;1.80;;;;;;;-146.26;100.00;59860.63;4983031;28;20042;-75
2023/04/05 01:18:23;;;;;;;4.25;2.53;;;;;;;-146.26;100.00;59860.63;4983885;28;20434;-74
2023/04/05 01:20:55;;;;;;;4.53;2.63;;;;;;;-146.26;100.00;59860.63;4985067;28;20482;-74
2023/04/05 01:23:50;;;;;;;6.70;2.55;;;;;;;-146.26;100.00;59860.63;4983048;28;20513;-74
2023/04/05 01:26:30;;;;;;;6.00;3.05;;;;;;;-146.26;100.00;59860.63;4984255;28;20105;-74
2023/04/05 01:28:58;;;;;;;6.15;3.08;;;;;;;-146.26;100.00;59860.63;4985531;28;20069;-75
2023/04/05 01:31:40;;;;;;;5.45;2.50;;;;;;;-146.26;100.00;59860.63;4985374;28;20121;-74
2023/04/05 01:34:39;;;;;;;5.32;2.47;;;;;;;-146.26;100.00;59860.63;4986194;28;20050;-74
2023/04/05 01:37:10;;;;;;;4.25;2.25;;;;;;;-146.26;100.00;59860.63;4985402;28;20054;-73
2023/04/05 01:39:36;;;;;;;7.47;3.75;;;;;;;-146.26;100.00;59860.63;4976623;28;20085;-73
2023/04/05 01:42:02;;;;;;;5.22;2.92;;;;;;;-146.26;100.00;59860.63;4980469;28;20640;-73
2023/04/05 01:44:28;;;;;;;9.10;3.75;;;;;;;-146.26;100.00;59860.63;4984816;28;20129;-72
2023/04/05 01:46:54;;;;;;;5.40;2.75;;;;;;;-146.26;100.00;59860.63;4986770;28;20061;-72
2023/04/05 01:49:23;;;;;;;4.90;2.25;;;;;;;-146.26;100.00;59860.63;4988525;28;20057;-73
2023/04/05 01:51:48;;;;;;;6.88;3.40;;;;;;;-146.26;100.00;59860.63;4984385;28;20388;-72
2023/04/05 01:54:14;;;;;;;6.35;3.17;;;;;;;-146.26;100.00;59860.63;4984949;28;20050;-72
2023/04/05 01:56:40;;;;;;;7.80;3.10;;;;;;;-146.26;100.00;59860.63;4986636;28;20054;-73
2023/04/05 01:59:05;;;;;;;5.40;3.22;;;;;;;-146.26;100.00;59860.63;4986869;28;20475;-73
2023/04/05 02:01:31;;;;;;;7.75;3.47;;;;;;;-146.26;100.00;59860.63;4985686;28;20074;-72
2023/04/05 02:03:56;;;;;;;6.32;3.08;;;;;;;-146.26;100.00;59860.63;4985004;28;20046;-73
2023/04/05 02:06:22;;;;;;;7.35;3.42;;;;;;;-146.26;100.00;59860.63;4986574;28;20632;-72
2023/04/05 02:08:47;;;;;;;6.43;2.72;;;;;;;-146.26;100.00;59860.63;4985011;28;20137;-73
2023/04/05 02:11:13;;;;;;;4.63;2.63;;;;;;;-146.26;100.00;59860.63;4988337;28;20061;-72
2023/04/05 02:13:38;;;;;;;5.60;3.05;;;;;;;-146.26;100.00;59860.63;4990855;28;20034;-72
2023/04/05 02:16:04;;;;;;;4.60;2.85;;;;;;;-146.26;100.00;59860.63;4986780;28;20137;-72
2023/04/05 02:18:30;;;;;;;6.35;2.95;;;;;;;-146.26;100.00;59860.63;4988580;28;20560;-74
2023/04/05 02:21:10;;;;;;;8.00;3.30;;;;;;;-146.26;100.00;59860.63;4989652;28;20077;-73
2023/04/05 02:23:37;;;;;;;7.65;3.25;;;;;;;-146.26;100.00;59860.63;4988125;28;20054;-75
2023/04/05 02:26:03;;;;;;;5.43;2.90;;;;;;;-146.26;100.00;59860.63;4976136;28;20022;-74
2023/04/05 02:28:28;;;;;;;6.18;2.97;;;;;;;-146.26;100.00;59860.63;4990087;28;20379;-74
2023/04/05 02:30:54;;;;;;;5.72;2.60;;;;;;;-146.26;100.00;59860.63;4989749;28;20411;-73
2023/04/05 02:33:23;;;;;;;9.00;2.78;;;;;;;-146.26;100.00;59860.63;5001088;28;20053;-75
2023/04/05 02:35:50;;;;;;;4.60;2.63;;;;;;;-146.26;100.00;59860.63;5001264;28;20050;-73
2023/04/05 02:38:16;;;;;;;6.93;3.20;;;;;;;-146.26;100.00;59860.63;4989752;28;20045;-73
2023/04/05 02:40:42;;;;;;;4.50;2.78;;;;;;;-146.26;100.00;59860.63;4989898;28;20070;-73
2023/04/05 02:43:07;;;;;;;6.22;3.40;;;;;;;-146.26;100.00;59860.63;4987250;28;20093;-73
2023/04/05 02:45:33;;;;;;;5.28;2.88;;;;;;;-146.26;100.00;59860.63;4978501;28;20158;-73
2023/04/05 02:47:58;;;;;;;8.07;3.00;;;;;;;-146.26;100.00;59860.63;4985933;28;20046;-73
2023/04/05 02:50:24;;;;;;;5.63;2.88;;;;;;;-146.26;100.00;59860.63;4987181;28;20506;-74
2023/04/05 02:52:50;;;;;;;6.78;3.20;;;;;;;-146.26;100.00;59860.63;4991084;28;20038;-74
2023/04/05 02:55:16;;;;;;;5.60;3.45;;;;;;;-146.26;100.00;59860.63;4988318;28;20077;-73
2023/04/05 02:57:44;;;;;;;8.32;4.40;;;;;;;-146.26;100.00;59860.63;4990017;28;20081;-73
2023/04/05 03:00:11;;;;;;;5.75;3.15;;;;;;;-146.26;100.00;59860.63;4989414;28;20903;-73
2023/04/05 03:02:38;;;;;;;9.55;3.72;;;;;;;-146.26;100.00;59860.63;4988324;28;20083;-74
2023/04/05 03:05:04;;;;;;;6.97;4.13;;;;;;;-146.26;100.00;59860.63;4990975;28;20751;-73
2023/04/05 03:07:31;;;;;;;7.80;4.63;;;;;;;-146.26;100.00;59860.63;4988009;28;20058;-74
2023/04/05 03:09:57;;;;;;;8.25;5.93;;;;;;;-146.26;100.00;59860.63;4989497;28;20072;-74
2023/04/05 03:12:22;;;;;;;7.72;4.53;;;;;;;-146.26;100.00;59860.63;4989074;28;20042;-75
2023/04/05 03:14:48;;;;;;;6.97;4.93;;;;;;;-146.26;100.00;59860.63;4989461;28;20133;-75
2023/04/05 03:17:13;;;;;;;8.98;4.97;;;;;;;-146.26;100.00;59860.63;4987984;28;20031;-74
2023/04/05 03:19:39;;;;;;;8.20;4.32;;;;;;;-146.26;100.00;59860.63;4990361;28;20150;-72
2023/04/05 03:22:06;;;;;;;6.90;5.43;;;;;;;-146.26;100.00;59860.63;4988835;28;20069;-73
2023/04/05 03:24:32;;;;;;;8.38;5.75;;;;;;;-146.26;100.00;59860.63;4988366;28;20188;-73
2023/04/05 03:27:01;;;;;;;8.75;5.03;;;;;;;-146.26;100.00;59860.63;4987610;28;20133;-73
2023/04/05 03:29:26;;;;;;;11.00;5.97;;;;;;;-146.26;100.00;59860.63;4986755;28;20039;-73
2023/04/05 03:31:52;;;;;;;9.32;4.85;;;;;;;-146.26;100.00;59860.63;4988772;28;20045;-73
2023/04/05 03:34:17;;;;;;;10.88;6.55;;;;;;;-146.26;100.00;59860.63;4987358;28;20438;-73
2023/04/05 03:36:43;;;;;;;8.80;5.47;;;;;;;-146.26;100.00;59860.63;4985293;28;20418;-73
2023/04/05 03:39:10;;;;;;;11.15;6.60;;;;;;;-146.26;100.00;59860.63;4986870;28;20082;-73
2023/04/05 03:41:36;;;;;;;7.43;4.78;;;;;;;-146.26;100.00;59860.63;4979636;28;20047;-74
2023/04/05 03:44:02;;;;;;;12.20;6.40;;;;;;;-146.26;100.00;59860.63;4987902;28;20044;-73
2023/04/05 03:46:28;;;;;;;10.13;5.65;;;;;;;-146.26;100.00;59860.63;4987018;28;20045;-73
2023/04/05 03:48:54;;;;;;;7.47;4.45;;;;;;;-146.26;100.00;59860.63;4985718;28;20046;-73
2023/04/05 03:51:20;;;;;;;8.27;5.65;;;;;;;-146.26;100.00;59860.63;4986986;28;20050;-76
2023/04/05 03:53:45;;;;;;;9.95;5.68;;;;;;;-146.26;100.00;59860.63;4985854;28;20061;-73
2023/04/05 03:56:11;;;;;;;10.85;6.68;;;;;;;-146.26;100.00;59860.63;4984241;28;20042;-72
2023/04/05 03:58:37;;;;;;;9.73;6.28;;;;;;;-146.26;100.00;59860.63;4986695;28;20042;-74
2023/04/05 04:01:03;;;;;;;11.93;5.75;;;;;;;-146.26;100.00;59860.63;4983707;28;20080;-73
2023/04/05 04:03:29;;;;;;;11.07;6.38;;;;;;;-146.26;100.00;59860.63;4985098;28;20471;-74
2023/04/05 04:05:56;;;;;;;14.65;6.60;;;;;;;-146.26;100.00;59860.63;4985804;28;20061;-74
2023/04/05 04:08:21;;;;;;;10.85;5.25;;;;;;;-146.26;100.00;59860.63;4982945;28;20785;-73
2023/04/05 04:10:47;;;;;;;8.23;5.88;;;;;;;-146.26;100.00;59860.63;4987571;28;20031;-72
2023/04/05 04:13:13;;;;;;;8.27;4.15;;;;;;;-146.26;100.00;59860.63;4985066;28;20534;-73
2023/04/05 04:15:38;;;;;;;9.75;6.63;;;;;;;-146.26;100.00;59860.63;4983117;28;20050;-73
2023/04/05 04:18:04;;;;;;;17.40;11.70;;;;;;;-146.26;100.00;59860.63;4984540;28;20054;-73
2023/04/05 04:20:29;;;;;;;9.07;5.65;;;;;;;-146.26;100.00;59860.63;4986729;28;20137;-73
2023/04/05 04:22:57;;;;;;;9.00;5.70;;;;;;;-146.26;100.00;59860.63;4986372;28;20070;-73
2023/04/05 04:25:25;;;;;;;8.88;5.65;;;;;;;-146.26;100.00;59860.63;4986126;28;20153;-73
2023/04/05 04:27:51;;;;;;;9.00;5.45;;;;;;;-146.26;100.00;59860.63;4985160;28;20562;-74
2023/04/05 04:30:21;;;;;;;10.35;5.18;;;;;;;-146.26;100.00;59860.63;4986310;28;20145;-74
2023/04/05 04:32:51;;;;;;;9.45;6.05;;;;;;;-146.26;100.00;59860.63;4985560;28;20069;-73
2023/04/05 04:35:27;;;;;;;8.98;5.72;;;;;;;-146.26;100.00;59860.63;4985194;28;20046;-76
2023/04/05 04:38:00;;;;;;;11.20;5.95;;;;;;;-146.26;100.00;59860.63;4986949;28;20100;-74
2023/04/05 04:40:31;;;;;;;11.30;5.57;;;;;;;-146.26;100.00;59860.63;4986212;28;20145;-73
2023/04/05 04:43:00;;;;;;;8.57;4.88;;;;;;;-146.26;100.00;59860.63;4984911;28;20070;-76
2023/04/05 04:45:26;;;;;;;11.27;6.60;;;;;;;-146.26;100.00;59860.63;4982300;28;20046;-74
2023/04/05 04:47:52;;;;;;;11.95;5.97;;;;;;;-146.26;100.00;59860.63;4985264;28;20132;-73
2023/04/05 04:50:19;;;;;;;12.43;6.43;;;;;;;-146.26;100.00;59860.63;4986334;28;20057;-74
2023/04/05 04:52:45;;;;;;;7.30;4.70;;;;;;;-146.26;100.00;59860.63;4987238;28;20172;-73
2023/04/05 04:55:13;;;;;;;10.68;4.72;;;;;;;-146.26;100.00;59860.63;4983393;28;20085;-75
2023/04/05 04:57:40;;;;;;;10.38;6.13;;;;;;;-146.26;100.00;59860.63;4983431;28;20054;-73
2023/04/05 05:00:13;;;;;;;8.52;4.90;;;;;;;-146.26;100.00;59860.63;4982204;28;20096;-73
2023/04/05 05:02:41;;;;;;;9.98;5.70;;;;;;;-146.26;100.00;59860.63;4983604;28;20141;-74
2023/04/05 05:05:07;;;;;;;11.70;6.55;;;;;;;-146.26;100.00;59860.63;4984270;28;20042;-72
2023/04/05 05:07:34;;;;;;;9.38;6.25;;;;;;;-146.26;100.00;59860.63;4984315;28;20054;-73
2023/04/05 05:09:59;;;;;;;8.80;5.15;;;;;;;-146.26;100.00;59860.63;4982900;28;20059;-75
2023/04/05 05:12:25;;;;;;;12.30;5.82;;;;;;;-146.26;100.00;59860.63;4983484;28;20117;-73
2023/04/05 05:14:51;;;;;;;10.90;7.15;;;;;;;-146.26;100.00;59860.63;4982181;28;20153;-73
2023/04/05 05:17:17;;;;;;;8.80;5.53;;;;;;;-146.26;100.00;59860.63;4980249;28;20485;-73
2023/04/05 05:19:42;;;;;;;10.40;5.53;;;;;;;-146.26;100.00;59860.63;4983420;28;20042;-72
2023/04/05 05:22:08;;;;;;;10.35;5.10;;;;;;;-146.26;100.00;59860.63;4983589;28;20067;-73
2023/04/05 05:24:33;;;;;;;8.38;4.88;;;;;;;-146.26;100.00;59860.63;4984274;28;20046;-72
2023/04/05 05:26:59;;;;;;;9.05;5.68;;;;;;;-146.26;100.00;59860.63;4968789;28;20440;-74
2023/04/05 05:29:24;;;;;;;10.38;6.10;;;;;;;-146.26;100.00;59860.63;4986978;28;20415;-72
2023/04/05 05:31:50;;;;;;;9.48;6.78;;;;;;;-146.26;100.00;59860.63;4985640;28;20537;-74
2023/04/05 05:34:16;;;;;;;10.02;7.15;;;;;;;-146.26;100.00;59860.63;4984903;28;20050;-74
2023/04/05 05:36:41;;;;;;;11.57;6.65;;;;;;;-146.26;100.00;59860.63;4985661;28;20062;-73
2023/04/05 05:39:07;;;;;;;9.35;5.93;;;;;;;-146.26;100.00;59860.63;4986656;28;20057;-73
2023/04/05 05:41:33;;;;;;;16.73;8.55;;;;;;;-146.26;100.00;59860.63;4987390;28;20553;-73
2023/04/05 05:43:58;;;;;;;13.43;6.97;;;;;;;-146.26;100.00;59860.63;4987908;28;20034;-72
2023/04/05 05:46:25;;;;;;;13.07;8.48;;;;;;;-146.26;100.00;59860.63;4989482;28;20050;-73
2023/04/05 05:48:50;;;;;;;14.93;8.10;;;;;;;-146.26;100.00;59860.63;4991156;28;20062;-76
2023/04/05 05:51:17;;;;;;;13.27;7.90;;;;;;;-146.26;100.00;59860.63;4991313;28;20054;-74
2023/04/05 05:53:43;;;;;;;14.20;8.13;;;;;;;-146.26;100.00;59860.63;4990312;28;20070;-74
2023/04/05 05:56:09;;;;;;;13.32;8.90;;;;;;;-146.26;100.00;59860.63;4986317;28;20097;-72
2023/04/05 05:58:35;;;;;;;15.45;8.85;;;;;;;-146.26;100.00;59860.63;4990508;28;20062;-74
2023/04/05 06:01:02;;;;;;;12.45;8.18;;;;;;;-146.26;100.00;59860.63;4988509;28;20128;-73
2023/04/05 06:03:32;;;;;;;13.68;9.88;;;;;;;-146.26;100.00;59860.63;4988066;28;20518;-72
2023/04/05 06:05:59;;;;;;;13.95;8.85;;;;;;;-146.26;100.00;59860.63;4989845;28;20180;-71
2023/04/05 06:08:28;;;;;;;13.70;8.75;;;;;;;-146.26;100.00;59860.63;4981572;28;20063;-71
2023/04/05 06:10:54;;;;;;;14.18;9.45;;;;;;;-146.26;100.00;59860.63;4990411;28;20486;-72
2023/04/05 06:13:20;;;;;;;18.17;9.73;;;;;;;-146.26;100.00;59860.63;4988786;28;20050;-72
2023/04/05 06:15:49;;;;;;;24.42;13.27;;;;;;;-146.26;100.00;59860.63;4983853;28;20074;-72
2023/04/05 06:18:15;;;;;;;18.05;10.30;;;;;;;-146.26;100.00;59860.63;4988408;28;20054;-72
2023/04/05 06:20:43;;;;;;;16.75;12.00;;;;;;;-146.26;100.00;59860.63;4985976;28;20953;-72
2023/04/05 06:23:10;;;;;;;18.33;10.60;;;;;;;-146.26;100.00;59860.63;4984160;28;20050;-70
2023/04/05 06:25:36;;;;;;;16.13;10.48;;;;;;;-146.26;100.00;59860.63;4987368;28;20049;-71
2023/04/05 06:28:03;;;;;;;17.95;12.38;;;;;;;-146.26;100.00;59860.63;4986896;28;20570;-72
2023/04/05 06:30:29;;;;;;;17.02;10.32;;;;;;;-146.26;100.00;59860.63;4987298;28;20058;-72
2023/04/05 06:32:55;;;;;;;18.30;13.05;;;;;;;-146.26;100.00;59860.63;4988610;28;20518;-71
2023/04/05 06:35:23;;;;;;;16.58;12.25;;;;;;;-146.26;100.00;59860.63;4989069;28;20041;-73
2023/04/05 06:37:49;;;;;;;18.13;12.73;;;;;;;-146.26;100.00;59860.63;4988890;28;20042;-71
2023/04/05 06:40:16;;;;;;;23.38;19.13;;;;;;;-146.26;100.00;59860.63;4987819;28;20053;-70
2023/04/05 06:42:42;;;;;;;29.65;20.23;;;;;;;-146.26;100.00;59860.63;4986869;28;20081;-72
2023/04/05 06:45:07;;;;;;;24.17;12.65;;;;;;;-146.26;100.00;59860.63;4987865;28;20401;-73
2023/04/05 06:47:37;;;;;;;18.33;13.35;;;;;;;-146.26;100.00;59860.63;4986355;28;20042;-73
2023/04/05 06:50:05;;;;;;;20.88;11.70;;;;;;;-146.26;100.00;59860.63;4991197;28;20049;-73
2023/04/05 06:52:31;;;;;;;21.92;13.02;;;;;;;-146.26;100.00;59860.63;4988195;28;20105;-73
2023/04/05 06:54:57;;;;;;;19.13;11.65;;;;;;;-146.26;100.00;59860.63;4987982;28;20054;-73
2023/04/05 06:57:22;;;;;;;24.15;15.55;;;;;;;-146.26;100.00;59860.63;5019591;28;20054;-73
2023/04/05 06:59:48;;;;;;;29.80;19.00;;;;;;;-146.26;100.00;59860.63;4988343;28;20050;-73
2023/04/05 07:02:13;;;;;;;56.83;39.92;;;;;;;-146.26;100.00;59860.63;4988325;28;20046;-71
2023/04/05 07:04:40;;;;;;;28.42;22.38;;;;;;;-146.26;100.00;59860.63;4988049;28;20045;-71
2023/04/05 07:07:06;;;;;;;29.60;23.48;;;;;;;-146.26;100.00;59860.63;4988192;28;20054;-70
2023/04/05 07:09:32;;;;;;;28.85;15.63;;;;;;;-146.26;100.00;59860.63;4986943;28;20076;-72
2023/04/05 07:12:06;;;;;;;23.25;14.23;;;;;;;-146.26;100.00;59860.63;4988118;28;20046;-72
2023/04/05 07:14:33;;;;;;;24.77;15.85;;;;;;;-146.26;100.00;59860.63;4987685;28;20053;-72
2023/04/05 07:16:59;;;;;;;24.80;15.35;;;;;;;-146.26;100.00;59860.63;4987610;28;20438;-71
2023/04/05 07:19:25;;;;;;;32.58;24.92;;;;;;;-146.26;100.00;59860.63;4987789;28;20060;-72
2023/04/05 07:21:51;;;;;;;35.97;25.23;;;;;;;-146.26;100.00;59860.63;4985932;28;20137;-72
2023/04/05 07:24:17;;;;;;;31.48;23.42;;;;;;;-146.26;100.00;59860.63;4987079;28;20458;-71
2023/04/05 07:26:43;;;;;;;26.33;17.65;;;;;;;-146.26;100.00;59860.63;4988392;28;20042;-73
2023/04/05 07:29:09;;;;;;;25.25;15.98;;;;;;;-146.26;100.00;59860.63;4988194;28;20064;-75
2023/04/05 07:31:35;;;;;;;21.65;14.85;;;;;;;-146.26;100.00;59860.63;4988127;28;20085;-74
2023/04/05 07:34:00;;;;;;;35.47;24.63;;;;;;;-146.26;100.00;59860.63;4987560;28;20463;-74
2023/04/05 07:36:27;;;;;;;38.88;24.70;;;;;;;-146.26;100.00;59860.63;4990162;28;20685;-74
2023/04/05 07:38:53;;;;;;;32.97;25.13;;;;;;;-146.26;100.00;59860.63;4983433;28;20089;-77
2023/04/05 07:41:19;;;;;;;27.25;16.40;;;;;;;-146.26;100.00;59860.63;4989212;28;20046;-75
2023/04/05 07:43:45;;;;;;;38.08;27.85;;;;;;;-146.26;100.00;59860.63;4991528;28;20038;-74
2023/04/05 07:46:11;;;;;;;37.35;27.42;;;;;;;-146.26;100.00;59860.63;4990374;28;20460;-73
2023/04/05 07:48:37;;;;;;;32.60;26.17;;;;;;;-146.26;100.00;59860.63;4990041;28;20058;-76
2023/04/05 07:51:05;;;;;;;26.98;16.88;;;;;;;-146.26;100.00;59860.63;4991527;28;20065;-75
2023/04/05 07:53:30;;;;;;;33.65;18.33;;;;;;;-146.26;100.00;59860.63;4987651;28;20070;-75
2023/04/05 07:55:56;;;;;;;37.97;27.02;;;;;;;-146.26;100.00;59860.63;4989036;28;20038;-75
2023/04/05 07:58:22;;;;;;;33.45;26.67;;;;;;;-146.26;100.00;59860.63;4988883;28;20113;-75
2023/04/05 08:00:48;;;;;;;37.38;26.48;;;;;;;-146.26;100.00;59860.63;4988460;28;20415;-75
2023/04/05 08:03:13;;;;;;;31.80;17.90;;;;;;;-146.26;100.00;59860.63;4988309;28;20047;-75
2023/04/05 08:05:39;;;;;;;38.80;28.98;;;;;;;-146.26;100.00;59860.63;4988192;28;20042;-75
2023/04/05 08:08:07;;;;;;;36.25;27.67;;;;;;;-146.26;100.00;59860.63;4988421;28;20510;-75
2023/04/05 08:10:37;;;;;;;26.60;15.82;;;;;;;-146.26;100.00;59860.63;4989423;28;20122;-74
2023/04/05 08:13:04;;;;;;;31.45;18.10;;;;;;;-146.26;100.00;59860.63;4988387;28;20113;-75
2023/04/05 08:15:32;;;;;;;43.85;29.25;;;;;;;-146.26;100.00;59860.63;4986094;28;20074;-75
2023/04/05 08:17:57;;;;;;;35.03;28.13;;;;;;;-146.26;100.00;59860.63;4982362;28;20084;-75
2023/04/05 08:20:23;;;;;;;38.20;28.23;;;;;;;-146.26;100.00;59860.63;4975205;28;20098;-73
2023/04/05 08:22:48;;;;;;;33.88;24.67;;;;;;;-146.26;100.00;59860.63;4989265;28;20097;-73
2023/04/05 08:25:14;;;;;;;33.53;27.17;;;;;;;-146.26;100.00;59860.63;4988558;28;20212;-73
2023/04/05 08:27:40;;;;;;;29.63;24.50;;;;;;;-146.26;100.00;59860.63;4988261;28;20068;-74
2023/04/05 08:30:06;;;;;;;33.65;25.60;;;;;;;-146.26;100.00;59860.63;4988580;28;20062;-75
2023/04/05 08:32:33;;;;;;;39.65;26.15;;;;;;;-146.26;100.00;59860.63;4987991;28;20070;-76
2023/04/05 08:34:58;;;;;;;34.13;25.70;;;;;;;-146.26;100.00;59860.63;4988767;28;20034;-73
2023/04/05 08:37:26;;;;;;;65.53;26.88;;;;;;;-146.26;100.00;59860.63;4987538;28;20057;-73
2023/04/05 08:39:52;;;;;;;43.58;27.67;;;;;;;-146.26;100.00;59860.63;4986959;28;20560;-76
2023/04/05 08:42:44;;;;;;;31.27;24.83;;;;;;;-146.26;100.00;59860.63;4987872;28;20042;-73
2023/04/05 08:45:13;;;;;;;31.58;22.02;;;;;;;-146.26;100.00;59860.63;4985064;28;20047;-73
2023/04/05 08:47:40;;;;;;;32.13;23.17;;;;;;;-146.26;100.00;59860.63;4977541;28;20042;-75
2023/04/05 08:50:09;;;;;;;53.50;37.63;;;;;;;-146.26;100.00;59860.63;4989168;28;20026;-75
2023/04/05 08:52:37;;;;;;;40.55;31.27;;;;;;;-146.26;100.00;59860.63;4986591;28;20124;-74
2023/04/05 08:55:05;;;;;;;35.10;25.00;;;;;;;-146.26;100.00;59860.63;4985986;28;20042;-75
2023/04/05 08:57:32;;;;;;;38.65;24.67;;;;;;;-146.26;100.00;59860.63;4986651;28;20109;-76
2023/04/05 09:00:00;;;;;;;28.00;23.17;;;;;;;-146.26;100.00;59860.63;4986280;28;20125;-74
2023/04/05 09:02:26;;;;;;;29.38;23.50;;;;;;;-146.26;100.00;59860.63;4985428;28;20078;-75
2023/04/05 09:04:52;;;;;;;30.17;20.42;;;;;;;-146.26;100.00;59860.63;4987475;28;20042;-75
2023/04/05 09:07:19;;;;;;;23.17;16.60;;;;;;;-146.26;100.00;59860.63;4986628;28;20078;-74
2023/04/05 09:09:51;;;;;;;20.42;15.95;;;;;;;-146.26;100.00;59860.63;4985345;28;20050;-74
2023/04/05 09:12:20;;;;;;;26.73;17.38;;;;;;;-146.26;100.00;59860.63;4986878;28;20065;-75
2023/04/05 09:14:47;;;;;;;25.52;16.67;;;;;;;-146.26;100.00;59860.63;4987040;28;20076;-76
2023/04/05 09:17:16;;;;;;;16.85;12.88;;;;;;;-146.26;100.00;59860.63;4984547;28;20038;-74
2023/04/05 09:19:42;;;;;;;13.50;10.73;;;;;;;-146.26;100.00;59860.63;4990429;28;20260;-75
2023/04/05 09:22:09;;;;;;;13.82;10.45;;;;;;;-146.26;100.00;59860.63;4991782;28;20129;-75
2023/04/05 09:24:38;;;;;;;16.17;11.25;;;;;;;-146.26;100.00;59860.63;4987039;28;20480;-74
2023/04/05 09:27:09;;;;;;;17.95;10.82;;;;;;;-146.26;100.00;59860.63;5001120;28;20118;-74
2023/04/05 09:29:36;;;;;;;17.17;11.43;;;;;;;-146.26;100.00;59860.63;4991543;28;20050;-75
2023/04/05 09:32:02;;;;;;;21.50;11.98;;;;;;;-146.26;100.00;59860.63;4987637;28;20038;-74
2023/04/05 09:34:32;;;;;;;14.20;10.25;;;;;;;-146.26;100.00;59860.63;4990339;28;20517;-74
2023/04/05 09:36:59;;;;;;;17.42;11.45;;;;;;;-146.26;100.00;59860.63;4993170;28;20054;-74
2023/04/05 09:39:29;;;;;;;22.17;13.90;;;;;;;-146.26;100.00;59860.63;4990835;28;20046;-73
2023/04/05 09:42:14;;;;;;;21.27;14.88;;;;;;;-146.26;100.00;59860.63;4990785;28;20035;-74
2023/04/05 09:44:56;;;;;;;27.63;14.13;;;;;;;-146.26;100.00;59860.63;4990983;28;20038;-73
2023/04/05 09:47:29;;;;;;;13.88;11.13;;;;;;;-146.26;100.00;59860.63;4977150;28;20084;-74
2023/04/05 09:49:56;;;;;;;16.63;13.10;;;;;;;-146.26;100.00;59860.63;4993994;28;20030;-73
2023/04/05 09:52:25;;;;;;;17.67;12.68;;;;;;;-146.26;100.00;59860.63;4990572;28;20042;-74
2023/04/05 09:54:52;;;;;;;15.80;12.57;;;;;;;-146.26;100.00;59860.63;4989905;28;20140;-73
2023/04/05 09:57:18;;;;;;;19.73;13.50;;;;;;;-146.26;100.00;59860.63;5002783;28;20066;-74
2023/04/05 09:59:47;;;;;;;22.83;12.55;;;;;;;-146.26;100.00;59860.63;4990785;28;20073;-73
2023/04/05 10:02:12;;;;;;;22.98;14.00;;;;;;;-146.26;100.00;59860.63;4990453;28;20112;-74
2023/04/05 10:04:42;;;;;;;19.45;14.80;;;;;;;-146.26;100.00;59860.63;4991211;28;20042;-73
2023/04/05 10:07:16;;;;;;;18.60;14.38;;;;;;;-146.26;100.00;59860.63;4989401;28;20097;-75
2023/04/05 10:09:45;;;;;;;21.20;14.77;;;;;;;-146.26;100.00;59860.63;4991958;28;20054;-74
2023/04/05 10:12:20;;;;;;;20.52;13.43;;;;;;;-146.26;100.00;59860.63;4990297;28;20798;-74
2023/04/05 10:14:46;;;;;;;18.70;14.10;;;;;;;-146.26;100.00;59860.63;4989701;28;20077;-74
2023/04/05 10:17:41;;;;;;;16.67;11.90;;;;;;;-146.26;100.00;59860.63;4986771;28;20042;-74
2023/04/05 10:20:15;;;;;;;16.45;12.45;;;;;;;-146.26;100.00;59860.63;4997274;28;20124;-74
2023/04/05 10:23:09;;;;;;;16.67;12.00;;;;;;;-146.26;100.00;59860.63;4990573;28;20085;-74
2023/04/05 10:25:49;;;;;;;15.60;11.75;;;;;;;-146.26;100.00;59860.63;4990431;28;20396;-74
2023/04/05 10:28:31;;;;;;;23.15;13.15;;;;;;;-146.26;100.00;59860.63;5005435;28;20121;-73
2023/04/05 10:31:24;;;;;;;22.52;13.32;;;;;;;-146.26;100.00;59860.63;4988326;28;20477;-73
2023/04/05 10:34:01;;;;;;;19.25;12.02;;;;;;;-146.26;100.00;59860.63;4980558;28;23116;-73
2023/04/05 10:36:26;;;;;;;13.77;9.95;;;;;;;-146.26;100.00;59860.63;4989528;28;20525;-74
2023/04/05 10:39:16;;;;;;;12.98;9.88;;;;;;;-146.26;100.00;59860.63;4990277;28;20108;-73
2023/04/05 10:41:48;;;;;;;15.00;11.50;;;;;;;-146.26;100.00;59860.63;4984114;28;20137;-74
2023/04/05 10:44:14;;;;;;;13.55;10.30;;;;;;;-146.26;100.00;59860.63;4989494;28;20042;-74
2023/04/05 10:46:41;;;;;;;13.13;10.52;;;;;;;-146.26;100.00;59860.63;4990003;28;20034;-73
2023/04/05 10:49:20;;;;;;;16.65;11.52;;;;;;;-146.26;100.00;59860.63;4991557;28;20034;-73
2023/04/05 10:51:46;;;;;;;15.88;11.18;;;;;;;-146.26;100.00;59860.63;4990754;28;20030;-74
2023/04/05 10:54:12;;;;;;;15.40;10.38;;;;;;;-146.26;100.00;59860.63;4987561;28;20050;-74
2023/04/05 10:56:39;;;;;;;11.43;7.88;;;;;;;-146.26;100.00;59860.63;4988971;28;20054;-75
2023/04/05 10:59:06;;;;;;;8.65;6.88;;;;;;;-146.26;100.00;59860.63;4988528;28;20053;-74
2023/04/05 11:01:32;;;;;;;7.32;5.80;;;;;;;-146.26;100.00;59860.63;4982833;28;20149;-75
2023/04/05 11:04:10;;;;;;;9.05;6.30;;;;;;;-146.26;100.00;59860.63;4988472;28;20079;-75
2023/04/05 11:06:36;;;;;;;12.23;6.80;;;;;;;-146.26;100.00;59860.63;4988987;28;20054;-75